Time;durP1;ratioP1;P1;durP2;ratioP2;P2;SDS_P1;SDS_P2;PMS_P1;PMS_P2;Temp;Humidity;BMP_temperature;BMP_pressure;BME280_temperature;BME280_humidity;BME280_pressure;Samples;Min_cycle;Max_cycle;Signal;HPM_P1;HPM_P2
2021/07/04 00:00:51;;;;;;;8.27;4.93;;;17.90;88.40;;;;;;5012574;28;20183;-75
2021/07/04 00:03:16;;;;;;;9.50;5.78;;;17.90;88.60;;;;;;5009860;28;20496;-76
2021/07/04 00:05:48;;;;;;;8.63;5.40;;;17.90;88.60;;;;;;5010428;28;20936;-74
2021/07/04 00:08:17;;;;;;;7.40;5.68;;;17.80;89.10;;;;;;5010821;28;20100;-76
2021/07/04 00:10:53;;;;;;;8.45;5.75;;;17.80;89.40;;;;;;5014621;28;20061;-75
2021/07/04 00:13:19;;;;;;;8.48;5.50;;;17.80;89.40;;;;;;5010789;28;20092;-75
2021/07/04 00:15:46;;;;;;;11.07;5.63;;;17.70;89.70;;;;;;5009961;28;20507;-75
2021/07/04 00:18:14;;;;;;;7.93;5.68;;;17.70;89.40;;;;;;5009834;28;20061;-75
2021/07/04 00:20:40;;;;;;;8.18;6.03;;;17.70;90.00;;;;;;5013198;28;20022;-75
2021/07/04 00:23:07;;;;;;;8.52;6.15;;;17.70;90.10;;;;;;5010991;28;20121;-76
2021/07/04 00:25:33;;;;;;;9.10;5.57;;;17.60;90.00;;;;;;5011365;28;20026;-74
2021/07/04 00:27:59;;;;;;;7.03;5.72;;;17.60;90.00;;;;;;5011631;28;20030;-75
2021/07/04 00:30:26;;;;;;;11.90;6.70;;;17.60;90.20;;;;;;5011189;28;20030;-75
2021/07/04 00:32:52;;;;;;;9.00;6.53;;;17.60;90.20;;;;;;5011216;28;20545;-75
2021/07/04 00:35:19;;;;;;;8.10;5.65;;;17.60;90.20;;;;;;5009988;28;20034;-75
2021/07/04 00:37:46;;;;;;;9.05;6.63;;;17.60;90.10;;;;;;5010737;28;20029;-76
2021/07/04 00:40:13;;;;;;;8.40;6.32;;;17.60;90.20;;;;;;5011425;28;20506;-75
2021/07/04 00:42:39;;;;;;;8.55;6.30;;;17.60;90.10;;;;;;5034913;23;20081;-74
2021/07/04 00:45:09;;;;;;;10.90;6.65;;;17.60;90.20;;;;;;5027418;28;20136;-75
2021/07/04 00:47:34;;;;;;;9.30;6.20;;;17.60;90.30;;;;;;5029959;28;20034;-75
2021/07/04 00:50:00;;;;;;;8.52;6.63;;;17.50;90.40;;;;;;5030526;28;20055;-74
2021/07/04 00:52:26;;;;;;;10.10;6.13;;;17.50;90.40;;;;;;5033255;28;20061;-73
2021/07/04 00:54:52;;;;;;;9.18;6.63;;;17.50;90.50;;;;;;5032790;28;20046;-74
2021/07/04 00:57:18;;;;;;;8.95;6.60;;;17.50;90.50;;;;;;5036113;28;20578;-74
2021/07/04 00:59:44;;;;;;;8.98;6.40;;;17.40;90.60;;;;;;5033866;28;20072;-74
2021/07/04 01:02:09;;;;;;;10.55;6.32;;;17.40;90.60;;;;;;5033835;28;20470;-74
2021/07/04 01:04:35;;;;;;;8.63;6.47;;;17.40;90.50;;;;;;5031503;28;20033;-74
2021/07/04 01:07:02;;;;;;;10.80;6.78;;;17.40;90.80;;;;;;5031727;28;20029;-74
2021/07/04 01:09:28;;;;;;;8.70;6.60;;;17.40;90.80;;;;;;5031380;28;20041;-74
2021/07/04 01:11:54;;;;;;;9.27;6.47;;;17.30;90.90;;;;;;5030572;28;20582;-74
2021/07/04 01:14:20;;;;;;;8.77;5.72;;;17.30;90.80;;;;;;5031458;28;20045;-74
2021/07/04 01:16:45;;;;;;;10.43;6.32;;;17.40;90.80;;;;;;5030904;28;20022;-74
2021/07/04 01:19:15;;;;;;;8.68;6.25;;;17.40;90.80;;;;;;5031748;28;20040;-74
2021/07/04 01:21:43;;;;;;;9.85;6.55;;;17.40;90.90;;;;;;5013476;28;20108;-74
2021/07/04 01:24:10;;;;;;;7.20;5.78;;;17.30;90.90;;;;;;5030429;28;20052;-74
2021/07/04 01:26:36;;;;;;;8.60;5.55;;;17.30;90.70;;;;;;5032739;28;20068;-74
2021/07/04 01:29:03;;;;;;;8.88;5.82;;;17.30;91.00;;;;;;5032738;28;20041;-75
2021/07/04 01:31:30;;;;;;;8.23;6.07;;;17.30;91.00;;;;;;5031855;28;20033;-74
2021/07/04 01:33:56;;;;;;;8.18;6.30;;;17.30;90.90;;;;;;5032404;28;20495;-75
2021/07/04 01:36:22;;;;;;;8.13;6.15;;;17.30;90.90;;;;;;5031300;28;20064;-74
2021/07/04 01:38:47;;;;;;;10.23;6.28;;;17.30;91.00;;;;;;5033174;28;20156;-75
2021/07/04 01:41:14;;;;;;;7.57;5.72;;;17.30;91.10;;;;;;5033184;28;20391;-74
2021/07/04 01:43:39;;;;;;;9.85;6.85;;;17.30;91.10;;;;;;5030025;28;20033;-74
2021/07/04 01:46:05;;;;;;;8.32;6.25;;;17.30;91.10;;;;;;5029302;28;20043;-74
2021/07/04 01:48:31;;;;;;;8.63;6.47;;;17.20;91.30;;;;;;5032094;28;20053;-74
2021/07/04 01:50:56;;;;;;;9.50;7.00;;;17.20;91.30;;;;;;5031901;28;20105;-75
2021/07/04 01:53:22;;;;;;;9.98;6.55;;;17.20;91.20;;;;;;5030903;28;20041;-75
2021/07/04 01:55:49;;;;;;;9.57;6.38;;;17.20;91.10;;;;;;5031739;28;20034;-75
2021/07/04 01:58:15;;;;;;;9.32;6.57;;;17.20;91.10;;;;;;5032607;28;20036;-74
2021/07/04 02:00:43;;;;;;;9.93;6.75;;;17.20;91.20;;;;;;5032826;28;20014;-74
2021/07/04 02:03:11;;;;;;;10.45;7.22;;;17.20;91.40;;;;;;5031563;28;20021;-74
2021/07/04 02:05:37;;;;;;;10.23;6.90;;;17.10;91.60;;;;;;5030590;28;20034;-74
2021/07/04 02:08:04;;;;;;;9.77;6.78;;;17.10;91.40;;;;;;5031683;28;20032;-75
2021/07/04 02:10:33;;;;;;;11.00;6.82;;;17.10;91.40;;;;;;5014837;28;20026;-75
2021/07/04 02:12:59;;;;;;;11.93;7.57;;;17.10;91.60;;;;;;5032360;28;20053;-74
2021/07/04 02:15:28;;;;;;;9.60;7.63;;;17.10;91.60;;;;;;5029691;28;20037;-75
2021/07/04 02:17:55;;;;;;;15.82;7.05;;;17.10;91.60;;;;;;5030945;28;20079;-75
2021/07/04 02:20:39;;;;;;;13.65;8.00;;;17.10;91.60;;;;;;5014673;28;20117;-74
2021/07/04 02:23:08;;;;;;;11.30;7.20;;;17.10;91.70;;;;;;5032031;28;20063;-74
2021/07/04 02:25:35;;;;;;;8.88;6.65;;;17.00;91.60;;;;;;5031257;28;20033;-75
2021/07/04 02:28:01;;;;;;;11.65;7.78;;;17.10;91.60;;;;;;5032597;28;20048;-75
2021/07/04 02:30:28;;;;;;;10.45;7.13;;;17.00;91.70;;;;;;5032571;28;20475;-74
2021/07/04 02:32:53;;;;;;;9.88;6.82;;;17.00;91.80;;;;;;5031577;28;20037;-75
2021/07/04 02:35:19;;;;;;;13.32;7.25;;;17.00;91.80;;;;;;5030710;28;20022;-75
2021/07/04 02:37:45;;;;;;;10.15;7.30;;;17.00;91.60;;;;;;5031446;28;20033;-74
2021/07/04 02:40:11;;;;;;;8.90;6.82;;;17.10;91.80;;;;;;5032465;28;20036;-74
2021/07/04 02:42:38;;;;;;;9.82;7.25;;;17.00;91.70;;;;;;5032167;28;20030;-75
2021/07/04 02:45:05;;;;;;;11.52;7.30;;;17.00;91.80;;;;;;5029711;28;20034;-75
2021/07/04 02:47:31;;;;;;;11.07;7.35;;;17.00;91.80;;;;;;5030131;28;20065;-75
2021/07/04 02:49:57;;;;;;;8.55;6.72;;;17.00;92.00;;;;;;5031461;28;20068;-75
2021/07/04 02:52:23;;;;;;;9.23;6.70;;;17.00;91.90;;;;;;5031832;28;20120;-75
2021/07/04 02:54:49;;;;;;;8.38;6.60;;;17.00;91.90;;;;;;5029702;28;20029;-75
2021/07/04 02:57:15;;;;;;;10.80;6.63;;;16.90;91.90;;;;;;5012189;28;20050;-74
2021/07/04 02:59:41;;;;;;;10.45;6.90;;;16.90;92.00;;;;;;5030463;28;20049;-74
2021/07/04 03:02:07;;;;;;;9.52;6.45;;;16.90;92.10;;;;;;5032097;28;20037;-75
2021/07/04 03:04:33;;;;;;;7.93;6.32;;;16.90;92.30;;;;;;5030330;28;20021;-75
2021/07/04 03:07:00;;;;;;;7.57;5.95;;;16.90;92.20;;;;;;5030655;28;20033;-74
2021/07/04 03:09:26;;;;;;;8.80;6.65;;;16.80;92.10;;;;;;5027470;28;20098;-74
2021/07/04 03:11:52;;;;;;;10.52;7.05;;;16.90;91.90;;;;;;5032065;28;20026;-75
2021/07/04 03:14:18;;;;;;;9.07;6.40;;;16.80;92.30;;;;;;5029708;28;20494;-75
2021/07/04 03:16:44;;;;;;;8.48;6.43;;;16.80;92.20;;;;;;5029090;28;20036;-74
2021/07/04 03:19:09;;;;;;;10.10;6.82;;;16.80;92.00;;;;;;5030912;28;20467;-74
2021/07/04 03:21:35;;;;;;;8.20;5.70;;;16.80;92.00;;;;;;5031883;28;20022;-75
2021/07/04 03:24:01;;;;;;;9.52;7.28;;;16.80;92.00;;;;;;5030611;28;20029;-75
2021/07/04 03:26:27;;;;;;;11.75;6.55;;;16.80;92.20;;;;;;5031849;28;20107;-75
2021/07/04 03:28:52;;;;;;;12.27;6.97;;;16.80;92.40;;;;;;5031013;28;20406;-75
2021/07/04 03:31:18;;;;;;;9.98;7.10;;;16.80;92.40;;;;;;5031427;28;20036;-75
2021/07/04 03:33:44;;;;;;;9.65;7.32;;;16.80;92.30;;;;;;5030377;28;20039;-75
2021/07/04 03:36:09;;;;;;;8.40;6.47;;;16.80;92.50;;;;;;5030211;28;20032;-75
2021/07/04 03:38:35;;;;;;;7.72;6.05;;;16.80;92.50;;;;;;5035253;28;20068;-75
2021/07/04 03:41:01;;;;;;;8.05;6.35;;;16.80;92.50;;;;;;5031381;28;20040;-75
2021/07/04 03:43:26;;;;;;;8.02;5.72;;;16.80;92.50;;;;;;5030384;28;20588;-75
2021/07/04 03:45:52;;;;;;;10.18;6.25;;;16.80;92.40;;;;;;5009380;28;20200;-75
2021/07/04 03:48:18;;;;;;;8.40;6.30;;;16.80;92.40;;;;;;5029244;28;20071;-75
2021/07/04 03:50:44;;;;;;;9.05;6.70;;;16.80;92.30;;;;;;5031015;28;20501;-75
2021/07/04 03:53:10;;;;;;;8.15;5.93;;;16.80;92.60;;;;;;5029851;28;20427;-75
2021/07/04 03:55:36;;;;;;;8.90;6.25;;;16.80;92.50;;;;;;5031201;28;20101;-75
2021/07/04 03:58:02;;;;;;;9.27;6.43;;;16.90;92.30;;;;;;5029287;28;20108;-75
2021/07/04 04:00:28;;;;;;;7.78;6.25;;;16.90;92.60;;;;;;5030172;28;21028;-76
2021/07/04 04:02:53;;;;;;;9.15;6.90;;;16.90;92.40;;;;;;5029489;28;20057;-75
2021/07/04 04:05:19;;;;;;;8.30;6.97;;;16.90;92.50;;;;;;5027868;28;20029;-75
2021/07/04 04:07:45;;;;;;;8.82;6.70;;;16.90;92.50;;;;;;5013422;28;20491;-75
2021/07/04 04:10:12;;;;;;;9.77;7.18;;;16.90;92.50;;;;;;5031146;28;20033;-75
2021/07/04 04:12:38;;;;;;;10.25;7.00;;;16.90;92.60;;;;;;5012692;28;20502;-76
2021/07/04 04:15:08;;;;;;;9.70;7.18;;;17.00;92.40;;;;;;5028529;28;20048;-75
2021/07/04 04:17:34;;;;;;;8.32;7.43;;;17.00;92.50;;;;;;5029250;28;20399;-75
2021/07/04 04:20:00;;;;;;;8.65;6.90;;;17.00;92.70;;;;;;5030862;28;20074;-75
2021/07/04 04:22:26;;;;;;;9.55;6.78;;;17.00;92.50;;;;;;5030972;28;20151;-75
2021/07/04 04:24:52;;;;;;;7.88;6.53;;;17.00;92.40;;;;;;5027849;28;20120;-75
2021/07/04 04:27:17;;;;;;;9.10;7.07;;;17.10;92.50;;;;;;5031115;28;20502;-74
2021/07/04 04:29:44;;;;;;;9.40;7.65;;;17.10;92.40;;;;;;5015673;28;20072;-73
2021/07/04 04:32:10;;;;;;;8.52;7.38;;;17.10;92.40;;;;;;5034573;28;20029;-75
2021/07/04 04:34:36;;;;;;;8.88;6.68;;;17.20;92.50;;;;;;5033825;28;20111;-75
2021/07/04 04:37:03;;;;;;;9.32;7.07;;;17.20;92.30;;;;;;5033307;28;20037;-74
2021/07/04 04:39:29;;;;;;;9.48;7.93;;;17.20;92.20;;;;;;5034873;28;20616;-75
2021/07/04 04:41:55;;;;;;;9.35;6.78;;;17.30;92.30;;;;;;5014883;28;20115;-75
2021/07/04 04:44:21;;;;;;;8.05;7.10;;;17.30;92.30;;;;;;5033412;28;20035;-75
2021/07/04 04:46:47;;;;;;;9.35;7.25;;;17.40;92.30;;;;;;5032860;28;20410;-75
2021/07/04 04:49:12;;;;;;;8.43;6.50;;;17.40;92.20;;;;;;5034580;28;20144;-75
2021/07/04 04:51:39;;;;;;;9.65;7.28;;;17.40;92.20;;;;;;5034341;28;20038;-74
2021/07/04 04:54:05;;;;;;;8.95;6.32;;;17.50;92.20;;;;;;5029095;28;20029;-75
2021/07/04 04:56:32;;;;;;;8.50;6.70;;;17.50;92.30;;;;;;5030384;28;20033;-75
2021/07/04 04:58:58;;;;;;;7.80;6.50;;;17.50;92.50;;;;;;5035631;28;20025;-74
2021/07/04 05:01:26;;;;;;;8.52;6.32;;;17.60;92.40;;;;;;5014782;28;20112;-74
2021/07/04 05:03:52;;;;;;;8.43;6.47;;;17.60;92.40;;;;;;5015228;28;20112;-75
2021/07/04 05:06:18;;;;;;;8.68;6.68;;;17.60;92.50;;;;;;5032990;28;20076;-75
2021/07/04 05:08:44;;;;;;;7.63;5.80;;;17.70;92.20;;;;;;5034775;28;20476;-75
2021/07/04 05:11:10;;;;;;;6.50;5.40;;;17.70;92.30;;;;;;5014912;28;20383;-75
2021/07/04 05:13:37;;;;;;;6.47;5.70;;;17.70;92.20;;;;;;5032114;28;20403;-75
2021/07/04 05:16:03;;;;;;;9.10;5.75;;;17.80;92.20;;;;;;5032263;28;20534;-75
2021/07/04 05:18:28;;;;;;;8.27;6.10;;;17.80;92.10;;;;;;5028105;28;20060;-74
2021/07/04 05:20:54;;;;;;;8.13;5.95;;;17.90;92.00;;;;;;5033886;28;20502;-74
2021/07/04 05:23:20;;;;;;;11.30;5.88;;;17.90;92.00;;;;;;5033652;28;20079;-74
2021/07/04 05:25:45;;;;;;;7.55;5.72;;;17.90;91.90;;;;;;5012764;28;20021;-75
2021/07/04 05:28:14;;;;;;;8.82;6.45;;;17.90;91.80;;;;;;5032954;28;20029;-74
2021/07/04 05:30:40;;;;;;;6.53;5.82;;;18.00;91.70;;;;;;5033069;28;20398;-74
2021/07/04 05:33:06;;;;;;;7.22;5.55;;;18.00;91.70;;;;;;5033161;28;20044;-74
2021/07/04 05:35:31;;;;;;;10.77;6.97;;;18.00;91.60;;;;;;5033204;28;20033;-75
2021/07/04 05:37:57;;;;;;;6.97;5.68;;;18.00;91.30;;;;;;5031593;28;20029;-74
2021/07/04 05:40:23;;;;;;;7.78;5.93;;;18.10;91.50;;;;;;5033622;28;20483;-74
2021/07/04 05:42:50;;;;;;;8.43;6.25;;;18.10;91.30;;;;;;5033831;28;20025;-74
2021/07/04 05:45:20;;;;;;;7.70;5.70;;;18.20;91.40;;;;;;5030591;28;20134;-75
2021/07/04 05:47:46;;;;;;;10.32;6.72;;;18.20;91.20;;;;;;5032230;28;20034;-74
2021/07/04 05:50:12;;;;;;;11.25;6.03;;;18.30;91.30;;;;;;5032960;28;20186;-74
2021/07/04 05:52:38;;;;;;;7.88;5.82;;;18.20;91.00;;;;;;5015495;28;20029;-74
2021/07/04 05:55:04;;;;;;;8.02;5.70;;;18.30;90.90;;;;;;5030103;28;20034;-75
2021/07/04 05:57:30;;;;;;;6.70;5.53;;;18.40;91.20;;;;;;5013651;28;20495;-74
2021/07/04 05:59:56;;;;;;;7.43;6.38;;;18.40;91.00;;;;;;5015081;28;20056;-74
2021/07/04 06:02:21;;;;;;;8.45;6.22;;;18.50;90.80;;;;;;5014761;28;20101;-74
2021/07/04 06:04:47;;;;;;;7.97;5.25;;;18.60;90.80;;;;;;5015299;28;20077;-75
2021/07/04 06:07:13;;;;;;;6.85;5.00;;;18.60;90.70;;;;;;5032805;28;20037;-74
2021/07/04 06:09:38;;;;;;;10.10;5.47;;;18.70;90.60;;;;;;5032446;28;20605;-74
2021/07/04 06:12:04;;;;;;;8.18;5.47;;;18.70;90.40;;;;;;5031497;28;20021;-75
2021/07/04 06:14:30;;;;;;;7.32;5.30;;;18.80;90.20;;;;;;5038423;28;20057;-77
2021/07/04 06:16:56;;;;;;;9.43;5.22;;;18.90;90.10;;;;;;5035583;28;20029;-77
2021/07/04 06:19:21;;;;;;;5.85;4.70;;;18.90;89.50;;;;;;5033436;28;20025;-78
2021/07/04 06:21:47;;;;;;;5.78;4.53;;;19.00;89.40;;;;;;5034217;28;20398;-77
2021/07/04 06:24:13;;;;;;;9.13;5.10;;;19.00;88.70;;;;;;4999155;28;20021;-77
2021/07/04 06:26:39;;;;;;;7.65;4.55;;;19.10;88.10;;;;;;5029485;28;20032;-76
2021/07/04 06:29:04;;;;;;;6.30;4.78;;;19.20;87.90;;;;;;5014587;28;20074;-76
2021/07/04 06:31:30;;;;;;;6.80;5.20;;;19.30;87.70;;;;;;5032362;28;20036;-77
2021/07/04 06:33:57;;;;;;;5.65;5.10;;;19.30;87.50;;;;;;5032561;28;20113;-76
2021/07/04 06:36:25;;;;;;;7.57;5.32;;;19.40;85.60;;;;;;5034133;28;20044;-76
2021/07/04 06:38:52;;;;;;;6.15;4.65;;;19.40;85.70;;;;;;5030455;28;20017;-75
2021/07/04 06:41:17;;;;;;;5.25;4.47;;;19.40;85.40;;;;;;5016047;28;20372;-72
2021/07/04 06:43:43;;;;;;;5.93;4.22;;;19.50;84.50;;;;;;5053073;23;20056;-74
2021/07/04 06:46:09;;;;;;;4.57;4.07;;;19.60;84.70;;;;;;5031513;28;20022;-73
2021/07/04 06:48:37;;;;;;;4.88;4.38;;;19.60;84.50;;;;;;5033688;28;20036;-77
2021/07/04 06:51:03;;;;;;;5.68;4.22;;;19.70;84.30;;;;;;5031706;28;20449;-75
2021/07/04 06:53:28;;;;;;;6.25;4.00;;;19.70;84.40;;;;;;5016291;28;20057;-77
2021/07/04 06:55:54;;;;;;;9.95;4.18;;;19.80;84.20;;;;;;5015301;28;20065;-73
2021/07/04 06:58:20;;;;;;;5.35;3.92;;;19.90;83.70;;;;;;5016697;28;20274;-74
2021/07/04 07:00:45;;;;;;;6.03;4.47;;;19.90;82.90;;;;;;5029778;28;20037;-73
2021/07/04 07:03:11;;;;;;;6.03;4.20;;;20.00;83.20;;;;;;5030324;28;20026;-72
2021/07/04 07:05:37;;;;;;;5.90;4.03;;;20.00;83.20;;;;;;5028094;28;20032;-73
2021/07/04 07:08:03;;;;;;;5.25;3.75;;;20.10;82.30;;;;;;5028344;28;20104;-72
2021/07/04 07:10:29;;;;;;;6.53;4.15;;;20.10;82.20;;;;;;5026407;28;20060;-73
2021/07/04 07:12:55;;;;;;;7.25;4.07;;;20.10;81.50;;;;;;5031575;28;20372;-73
2021/07/04 07:15:21;;;;;;;4.20;3.60;;;20.20;81.90;;;;;;5029572;28;20633;-74
2021/07/04 07:17:47;;;;;;;6.43;4.07;;;20.20;82.00;;;;;;5030491;28;20029;-74
2021/07/04 07:20:14;;;;;;;4.50;3.63;;;20.20;80.90;;;;;;5031685;28;20037;-74
2021/07/04 07:22:40;;;;;;;4.97;3.92;;;20.30;81.10;;;;;;5012523;28;20036;-72
2021/07/04 07:25:07;;;;;;;5.30;3.60;;;20.30;80.40;;;;;;5029303;28;20406;-74
2021/07/04 07:27:34;;;;;;;7.28;4.50;;;20.40;81.30;;;;;;5022870;28;20382;-73
2021/07/04 07:30:00;;;;;;;4.75;3.75;;;20.40;81.70;;;;;;5028849;28;20025;-73
2021/07/04 07:32:27;;;;;;;7.50;4.57;;;20.40;81.40;;;;;;5011788;28;20068;-73
2021/07/04 07:34:53;;;;;;;4.57;3.58;;;20.50;81.10;;;;;;5014252;28;20152;-74
2021/07/04 07:37:20;;;;;;;4.60;3.45;;;20.50;81.00;;;;;;5030979;28;20557;-73
2021/07/04 07:39:45;;;;;;;3.88;3.38;;;20.60;80.10;;;;;;5028168;28;20044;-73
2021/07/04 07:42:11;;;;;;;6.03;3.90;;;20.70;80.50;;;;;;5025400;28;20025;-73
2021/07/04 07:44:37;;;;;;;5.85;3.90;;;20.80;79.60;;;;;;5027051;28;20041;-73
2021/07/04 07:47:04;;;;;;;3.45;3.15;;;20.90;79.10;;;;;;5011436;28;20033;-75
2021/07/04 07:49:30;;;;;;;8.88;4.35;;;21.00;78.00;;;;;;5000032;28;20040;-74
2021/07/04 07:51:56;;;;;;;4.78;3.42;;;21.10;78.00;;;;;;5016211;28;20034;-75
2021/07/04 07:54:22;;;;;;;5.00;3.67;;;21.10;78.50;;;;;;5024281;28;20033;-73
2021/07/04 07:56:48;;;;;;;5.75;3.50;;;21.20;78.70;;;;;;5026904;28;20029;-75
2021/07/04 07:59:14;;;;;;;4.30;3.28;;;21.20;77.80;;;;;;5020061;28;20036;-75
2021/07/04 08:01:41;;;;;;;8.20;3.53;;;21.30;78.00;;;;;;5030810;28;20057;-75
2021/07/04 08:04:07;;;;;;;5.25;3.70;;;21.40;77.10;;;;;;5029781;28;20530;-74
2021/07/04 08:06:32;;;;;;;5.38;3.60;;;21.50;75.70;;;;;;5030632;28;20103;-73
2021/07/04 08:08:58;;;;;;;4.88;3.45;;;21.50;76.80;;;;;;5029501;28;20163;-74
2021/07/04 08:11:24;;;;;;;4.10;3.47;;;21.40;77.80;;;;;;5014866;28;20403;-74
2021/07/04 08:13:50;;;;;;;6.15;3.63;;;21.40;78.20;;;;;;5028638;28;20132;-75
2021/07/04 08:16:16;;;;;;;6.85;3.53;;;21.40;78.50;;;;;;5027143;28;20586;-74
2021/07/04 08:18:43;;;;;;;5.25;3.90;;;21.40;78.60;;;;;;5030273;28;20021;-75
2021/07/04 08:21:09;;;;;;;5.07;3.67;;;21.40;79.10;;;;;;5031155;28;20104;-76
2021/07/04 08:23:35;;;;;;;4.95;3.80;;;21.40;79.20;;;;;;4996058;28;20061;-75
2021/07/04 08:26:00;;;;;;;5.88;3.95;;;21.40;78.50;;;;;;5012375;28;20520;-72
2021/07/04 08:28:26;;;;;;;6.05;3.72;;;21.50;78.80;;;;;;5030373;28;20041;-72
2021/07/04 08:30:52;;;;;;;4.55;3.70;;;21.50;79.20;;;;;;5029683;28;20426;-72
2021/07/04 08:33:18;;;;;;;4.90;3.67;;;21.50;79.50;;;;;;5028280;28;20061;-72
2021/07/04 08:35:43;;;;;;;4.43;3.60;;;21.60;79.60;;;;;;5011935;28;20052;-71
2021/07/04 08:38:09;;;;;;;4.35;3.80;;;21.60;79.40;;;;;;5028604;28;20030;-72
2021/07/04 08:40:36;;;;;;;4.57;4.10;;;21.70;79.70;;;;;;5026980;28;20032;-73
2021/07/04 08:43:02;;;;;;;6.50;4.30;;;21.70;78.90;;;;;;5026497;28;20026;-72
2021/07/04 08:45:27;;;;;;;5.13;4.63;;;21.80;78.00;;;;;;5010964;28;20275;-73
2021/07/04 08:47:53;;;;;;;5.30;3.72;;;21.90;76.00;;;;;;5026333;28;20143;-72
2021/07/04 08:50:20;;;;;;;6.50;4.70;;;22.00;77.10;;;;;;5026362;28;20029;-73
2021/07/04 08:52:45;;;;;;;5.72;4.32;;;22.10;76.50;;;;;;5026556;28;20037;-73
2021/07/04 08:55:11;;;;;;;5.95;4.22;;;22.20;76.40;;;;;;5023734;28;20022;-72
2021/07/04 08:57:38;;;;;;;6.13;4.63;;;22.30;74.80;;;;;;5018974;28;20477;-72
2021/07/04 09:00:07;;;;;;;5.00;4.35;;;22.40;73.90;;;;;;5023418;28;20022;-73
2021/07/04 09:02:37;;;;;;;5.70;4.75;;;22.40;74.30;;;;;;5024838;28;20383;-71
2021/07/04 09:05:11;;;;;;;6.72;4.82;;;22.50;75.20;;;;;;5025220;28;20040;-70
2021/07/04 09:07:38;;;;;;;8.07;4.70;;;22.60;74.60;;;;;;5027503;28;20029;-72
2021/07/04 09:10:07;;;;;;;8.65;5.65;;;22.60;74.20;;;;;;5027851;28;20114;-70
2021/07/04 09:12:52;;;;;;;8.93;5.00;;;22.60;74.00;;;;;;5029559;28;20103;-76
2021/07/04 09:15:20;;;;;;;6.32;4.47;;;22.70;73.40;;;;;;5031375;28;20070;-70
2021/07/04 09:17:48;;;;;;;6.28;4.45;;;22.70;72.80;;;;;;5031910;28;20036;-70
2021/07/04 09:20:29;;;;;;;6.55;5.07;;;22.80;73.30;;;;;;5032811;28;20529;-70
2021/07/04 09:22:56;;;;;;;9.15;5.20;;;22.80;72.30;;;;;;5032355;28;20068;-70
2021/07/04 09:25:27;;;;;;;7.90;4.93;;;22.90;71.90;;;;;;5031670;28;20037;-71
2021/07/04 09:28:12;;;;;;;9.52;5.28;;;22.90;70.50;;;;;;5032591;28;20024;-70
2021/07/04 09:30:42;;;;;;;8.82;5.28;;;22.90;71.20;;;;;;5031866;28;20044;-70
2021/07/04 09:33:16;;;;;;;6.03;5.27;;;22.90;72.20;;;;;;5019520;28;20085;-70
2021/07/04 09:35:55;;;;;;;7.93;5.13;;;22.90;71.00;;;;;;5030304;28;20091;-70
2021/07/04 09:38:22;;;;;;;9.75;4.82;;;22.90;70.90;;;;;;5032002;28;20511;-70
2021/07/04 09:40:48;;;;;;;10.60;4.80;;;23.00;70.90;;;;;;5020065;28;20096;-69
2021/07/04 09:43:15;;;;;;;5.60;4.53;;;23.00;71.20;;;;;;5031766;28;20464;-70
2021/07/04 09:45:53;;;;;;;4.95;4.38;;;23.10;70.70;;;;;;5030264;28;20029;-70
2021/07/04 09:48:34;;;;;;;6.47;4.78;;;23.30;70.40;;;;;;5030475;28;20384;-72
2021/07/04 09:51:08;;;;;;;9.55;5.05;;;23.30;71.00;;;;;;5029784;28;20043;-71
2021/07/04 09:53:56;;;;;;;8.13;5.10;;;23.50;70.70;;;;;;5028258;28;20033;-71
2021/07/04 09:56:32;;;;;;;8.32;5.47;;;23.60;70.40;;;;;;4994909;28;20372;-74
2021/07/04 09:59:00;;;;;;;11.13;5.38;;;23.80;70.30;;;;;;5025428;28;20479;-75
2021/07/04 10:01:35;;;;;;;9.65;6.05;;;23.70;71.20;;;;;;5030067;28;20434;-75
2021/07/04 10:04:02;;;;;;;6.38;4.70;;;23.90;69.10;;;;;;5027436;28;20164;-76
2021/07/04 10:06:47;;;;;;;8.35;4.60;;;23.70;69.10;;;;;;5027306;28;20100;-74
2021/07/04 10:09:14;;;;;;;5.30;4.47;;;23.70;70.40;;;;;;5023225;28;20037;-73
2021/07/04 10:11:40;;;;;;;6.53;5.00;;;23.60;69.50;;;;;;5031060;28;20037;-71
2021/07/04 10:14:05;;;;;;;8.45;5.45;;;23.60;69.40;;;;;;5029131;28;20036;-72
2021/07/04 10:16:32;;;;;;;7.50;5.28;;;23.70;67.80;;;;;;5025884;28;20037;-73
2021/07/04 10:19:02;;;;;;;5.53;4.90;;;23.70;69.60;;;;;;5030192;28;20092;-72
2021/07/04 10:21:28;;;;;;;6.15;4.55;;;23.60;71.30;;;;;;5027186;28;20506;-74
2021/07/04 10:23:57;;;;;;;6.72;4.88;;;23.60;70.90;;;;;;5029092;28;20139;-76
2021/07/04 10:26:25;;;;;;;7.65;5.18;;;23.50;70.30;;;;;;5029436;28;20025;-74
2021/07/04 10:28:55;;;;;;;9.05;5.25;;;23.60;69.60;;;;;;5031065;28;20033;-73
2021/07/04 10:31:22;;;;;;;6.95;4.78;;;23.70;70.00;;;;;;5029042;28;20037;-74
2021/07/04 10:34:05;;;;;;;8.82;5.55;;;23.60;70.80;;;;;;5029439;28;20105;-75
2021/07/04 10:36:32;;;;;;;6.95;5.50;;;23.60;69.50;;;;;;5032626;28;20026;-74
2021/07/04 10:39:01;;;;;;;6.60;5.13;;;23.50;69.90;;;;;;5008717;28;20037;-74
2021/07/04 10:41:35;;;;;;;6.05;4.63;;;23.40;70.50;;;;;;5015308;28;20026;-72
2021/07/04 10:44:09;;;;;;;6.40;5.30;;;23.40;70.50;;;;;;5025811;28;20029;-71
2021/07/04 10:46:41;;;;;;;5.97;4.90;;;23.40;71.00;;;;;;5009791;28;20026;-73
2021/07/04 10:49:15;;;;;;;8.10;4.90;;;23.40;70.30;;;;;;5016493;28;20033;-75
2021/07/04 10:52:03;;;;;;;4.95;4.45;;;23.50;69.70;;;;;;5017780;28;20037;-72
2021/07/04 10:54:45;;;;;;;8.52;5.25;;;23.50;70.70;;;;;;5003866;28;20033;-76
2021/07/04 10:57:28;;;;;;;6.30;5.03;;;23.50;70.40;;;;;;5019946;28;20511;-75
2021/07/04 11:00:04;;;;;;;6.70;5.32;;;23.50;70.30;;;;;;5026883;28;20025;-76
2021/07/04 11:02:51;;;;;;;6.05;4.80;;;23.50;70.80;;;;;;5008236;28;20043;-76
2021/07/04 11:05:41;;;;;;;5.07;4.57;;;23.50;71.90;;;;;;5022754;28;20030;-75
2021/07/04 11:08:42;;;;;;;6.65;5.07;;;23.50;70.80;;;;;;5012376;28;20490;-74
2021/07/04 11:11:08;;;;;;;6.05;5.00;;;23.40;70.40;;;;;;4982954;28;21607;-75
2021/07/04 11:13:37;;;;;;;6.05;5.28;;;23.20;71.00;;;;;;5028707;28;20037;-75
2021/07/04 11:16:15;;;;;;;5.20;4.68;;;23.20;71.40;;;;;;5029052;28;20069;-76
2021/07/04 11:18:44;;;;;;;5.88;5.03;;;23.30;71.70;;;;;;5028358;28;20037;-75
2021/07/04 11:21:11;;;;;;;7.00;5.00;;;23.30;71.30;;;;;;5032150;28;20049;-75
2021/07/04 11:23:38;;;;;;;7.10;5.30;;;23.30;71.20;;;;;;5030883;28;20060;-75
2021/07/04 11:26:06;;;;;;;7.35;5.55;;;23.50;70.20;;;;;;5019120;28;20026;-73
2021/07/04 11:28:38;;;;;;;5.75;4.82;;;23.70;69.00;;;;;;5015610;28;20030;-73
2021/07/04 11:31:13;;;;;;;5.25;4.75;;;23.90;70.50;;;;;;4999114;28;20065;-73
2021/07/04 11:34:02;;;;;;;6.68;5.00;;;24.20;70.30;;;;;;5030554;28;20061;-75
2021/07/04 11:36:28;;;;;;;5.15;4.63;;;24.30;70.10;;;;;;4951586;28;20122;-75
2021/07/04 11:39:06;;;;;;;6.38;5.18;;;24.40;70.50;;;;;;4948691;28;20039;-77
2021/07/04 11:41:36;;;;;;;5.75;4.97;;;24.40;69.80;;;;;;4950916;28;21032;-76
2021/07/04 11:44:12;;;;;;;6.10;5.00;;;24.40;67.50;;;;;;4950012;28;20103;-76
2021/07/04 11:46:41;;;;;;;6.50;5.18;;;24.40;68.20;;;;;;4932227;28;21839;-76
2021/07/04 11:49:08;;;;;;;5.70;5.05;;;24.40;69.80;;;;;;4948988;28;20031;-73
2021/07/04 11:51:51;;;;;;;5.25;4.70;;;24.60;70.10;;;;;;4953643;28;20029;-73
2021/07/04 11:54:32;;;;;;;6.38;5.32;;;24.80;69.30;;;;;;4961440;28;20048;-74
2021/07/04 11:59:53;;;;;;;7.68;5.50;;;25.30;67.20;;;;;;4949334;28;20040;-74
2021/07/04 12:02:20;;;;;;;7.55;4.97;;;25.70;65.10;;;;;;4951021;28;20028;-75
2021/07/04 12:04:46;;;;;;;6.03;5.43;;;26.20;65.80;;;;;;4953656;28;20560;-75
2021/07/04 12:07:16;;;;;;;6.93;5.38;;;26.70;66.00;;;;;;4953887;28;20075;-76
2021/07/04 12:09:44;;;;;;;;;;;27.50;63.00;;;;;;4951356;28;20166;-74
2021/07/04 12:12:20;;;;;;;5.22;4.72;;;28.30;60.00;;;;;;4951345;28;20371;-75
2021/07/04 12:14:51;;;;;;;6.03;5.10;;;29.10;57.00;;;;;;5033104;28;20120;-75
2021/07/04 12:17:20;;;;;;;5.72;5.13;;;29.30;53.30;;;;;;5011196;28;20033;-75
2021/07/04 12:19:54;;;;;;;5.93;5.32;;;29.60;55.70;;;;;;5027850;28;20025;-75
2021/07/04 12:22:30;;;;;;;5.70;5.10;;;30.10;55.30;;;;;;5031946;28;20026;-75
2021/07/04 12:24:58;;;;;;;6.32;5.38;;;30.60;54.20;;;;;;5031133;28;20061;-75
2021/07/04 12:27:42;;;;;;;6.82;5.47;;;30.40;52.50;;;;;;5030949;28;20033;-75
2021/07/04 12:30:11;;;;;;;5.85;5.28;;;29.90;53.60;;;;;;5029060;28;20423;-75
2021/07/04 12:32:59;;;;;;;6.68;5.72;;;29.20;55.30;;;;;;5035538;28;20505;-75
2021/07/04 12:35:32;;;;;;;6.10;5.35;;;28.30;53.00;;;;;;5026821;28;20033;-75
2021/07/04 12:38:07;;;;;;;7.38;5.75;;;27.40;55.70;;;;;;5018015;28;20034;-75
2021/07/04 12:40:53;;;;;;;8.25;5.55;;;26.80;56.80;;;;;;5030997;28;20025;-75
2021/07/04 12:43:28;;;;;;;6.43;5.75;;;26.50;56.50;;;;;;5030566;28;20029;-74
2021/07/04 12:45:55;;;;;;;5.53;5.03;;;26.10;58.30;;;;;;5026327;28;20505;-75
2021/07/04 12:48:23;;;;;;;5.95;5.30;;;25.80;60.50;;;;;;5033748;28;20104;-75
2021/07/04 12:51:07;;;;;;;6.65;5.50;;;25.50;60.80;;;;;;5034715;28;20025;-74
2021/07/04 12:53:44;;;;;;;6.15;5.55;;;25.30;62.20;;;;;;5035366;28;20028;-74